Time;durP1;ratioP1;P1;durP2;ratioP2;P2;SDS_P1;SDS_P2;PMS_P1;PMS_P2;Temp;Humidity;BMP_temperature;BMP_pressure;BME280_temperature;BME280_humidity;BME280_pressure;Samples;Min_cycle;Max_cycle;Signal;HPM_P1;HPM_P2
2021/05/05 00:02:24;;;;;;;12.73;8.07;;;7.20;99.90;;;;;;5058020;28;20211;-77
2021/05/05 00:05:11;;;;;;;12.07;8.10;;;7.30;99.90;;;;;;5053317;28;20202;-77
2021/05/05 00:07:56;;;;;;;14.40;7.67;;;7.30;99.90;;;;;;5053739;28;20250;-77
2021/05/05 00:10:41;;;;;;;13.70;8.87;;;7.30;99.90;;;;;;5058756;28;20732;-78
2021/05/05 00:13:26;;;;;;;11.80;8.67;;;7.30;99.90;;;;;;5057506;28;20225;-78
2021/05/05 00:16:11;;;;;;;13.77;8.73;;;7.30;99.90;;;;;;5048112;28;20219;-77
2021/05/05 00:18:56;;;;;;;11.03;7.20;;;7.40;99.90;;;;;;5053240;28;20225;-76
2021/05/05 00:21:43;;;;;;;12.30;6.97;;;7.40;99.90;;;;;;5061209;28;20303;-77
2021/05/05 00:24:28;;;;;;;11.73;7.13;;;7.40;99.90;;;;;;5057712;28;20238;-76
2021/05/05 00:27:13;;;;;;;10.60;6.53;;;7.40;99.90;;;;;;5054180;28;20229;-77
2021/05/05 00:29:59;;;;;;;12.83;6.67;;;7.40;99.90;;;;;;5055647;28;20776;-77
2021/05/05 00:32:44;;;;;;;14.47;6.23;;;7.40;99.90;;;;;;5059706;28;20219;-77
2021/05/05 00:35:29;;;;;;;13.73;5.97;;;7.50;99.90;;;;;;5062724;28;20219;-77
2021/05/05 00:38:16;;;;;;;11.80;6.43;;;7.50;99.90;;;;;;5061503;28;20203;-76
2021/05/05 00:41:04;;;;;;;12.80;7.73;;;7.50;99.90;;;;;;5052231;28;20266;-77
2021/05/05 00:43:49;;;;;;;12.23;6.87;;;7.50;99.90;;;;;;5056491;28;20211;-78
2021/05/05 00:46:34;;;;;;;9.43;6.27;;;7.50;99.90;;;;;;5054559;28;20293;-78
2021/05/05 00:49:19;;;;;;;11.03;5.40;;;7.50;99.90;;;;;;5053510;28;20211;-77
2021/05/05 00:52:05;;;;;;;7.63;4.37;;;7.50;99.90;;;;;;5050718;28;20250;-76
2021/05/05 00:54:51;;;;;;;10.33;4.97;;;7.60;99.90;;;;;;5043883;28;20306;-76
2021/05/05 00:57:37;;;;;;;8.83;4.13;;;7.50;99.90;;;;;;5052822;28;20245;-77
2021/05/05 01:00:23;;;;;;;8.10;3.77;;;7.60;99.90;;;;;;5046244;28;20226;-76
2021/05/05 01:03:08;;;;;;;12.00;4.10;;;7.60;99.90;;;;;;5054366;28;20275;-77
2021/05/05 01:05:52;;;;;;;11.53;3.47;;;7.60;99.90;;;;;;5053133;28;20210;-76
2021/05/05 01:08:37;;;;;;;6.53;3.73;;;7.60;99.90;;;;;;5047967;28;20626;-76
2021/05/05 01:11:23;;;;;;;5.77;2.37;;;7.60;99.90;;;;;;5040570;28;20226;-76
2021/05/05 01:14:09;;;;;;;7.90;2.87;;;7.50;99.90;;;;;;5042760;28;20227;-76
2021/05/05 01:16:55;;;;;;;4.30;2.23;;;7.50;99.90;;;;;;5042782;28;20210;-77
2021/05/05 01:19:40;;;;;;;5.60;2.47;;;7.50;99.90;;;;;;5054033;28;20211;-77
2021/05/05 01:22:26;;;;;;;10.10;3.20;;;7.40;99.90;;;;;;5041203;28;20564;-78
2021/05/05 01:25:13;;;;;;;6.80;3.20;;;7.40;99.90;;;;;;5056981;28;20362;-77
2021/05/05 01:27:59;;;;;;;8.33;3.23;;;7.30;99.90;;;;;;5054470;28;20214;-77
2021/05/05 01:30:45;;;;;;;6.90;3.17;;;7.30;99.90;;;;;;5039145;28;20231;-77
2021/05/05 01:33:30;;;;;;;8.63;3.03;;;7.20;99.90;;;;;;5049536;28;20323;-78
2021/05/05 01:36:17;;;;;;;8.27;3.03;;;7.20;99.90;;;;;;5055789;28;20269;-78
2021/05/05 01:39:07;;;;;;;7.97;3.23;;;7.10;99.90;;;;;;5046897;28;20755;-78
2021/05/05 01:41:52;;;;;;;7.33;3.50;;;7.10;99.90;;;;;;5048246;28;20235;-77
2021/05/05 01:44:40;;;;;;;8.63;2.50;;;7.10;99.90;;;;;;5049234;28;20697;-75
2021/05/05 01:47:25;;;;;;;8.37;2.80;;;7.10;99.90;;;;;;5054507;28;20214;-77
2021/05/05 01:50:11;;;;;;;9.47;3.00;;;7.10;99.90;;;;;;5057519;28;20629;-77
2021/05/05 01:52:57;;;;;;;10.53;2.90;;;7.10;99.90;;;;;;5047228;28;20222;-78
2021/05/05 01:55:43;;;;;;;8.53;3.33;;;7.00;99.90;;;;;;5057000;28;20219;-78
2021/05/05 01:58:28;;;;;;;11.40;4.23;;;7.00;99.90;;;;;;5059140;28;20251;-78
2021/05/05 02:01:13;;;;;;;9.33;3.10;;;7.00;99.90;;;;;;5045774;28;20223;-78
2021/05/05 02:04:02;;;;;;;6.57;3.60;;;7.00;99.90;;;;;;5054541;28;20594;-78
2021/05/05 02:06:47;;;;;;;10.43;4.13;;;7.00;99.90;;;;;;5056138;28;20709;-78
2021/05/05 02:09:32;;;;;;;8.13;3.43;;;7.00;99.90;;;;;;5056555;28;20703;-77
2021/05/05 02:12:18;;;;;;;7.60;3.33;;;7.20;99.90;;;;;;5049424;28;20226;-77
2021/05/05 02:15:04;;;;;;;6.03;3.27;;;7.10;99.90;;;;;;5046632;28;20230;-78
2021/05/05 02:17:50;;;;;;;10.23;3.20;;;7.10;99.90;;;;;;5056486;28;20700;-77
2021/05/05 02:20:35;;;;;;;7.50;3.17;;;7.10;99.90;;;;;;5044359;28;20246;-77
2021/05/05 02:23:20;;;;;;;9.80;3.30;;;7.10;99.90;;;;;;5061459;28;20214;-75
2021/05/05 02:26:05;;;;;;;6.43;2.70;;;7.10;99.90;;;;;;5063871;28;20219;-75
2021/05/05 02:28:52;;;;;;;7.20;2.60;;;7.00;99.90;;;;;;5043588;28;20298;-77
2021/05/05 02:31:37;;;;;;;7.50;2.70;;;7.00;99.90;;;;;;5044703;28;20227;-77
2021/05/05 02:34:22;;;;;;;6.60;3.00;;;6.90;99.90;;;;;;5054249;28;20265;-76
2021/05/05 02:37:10;;;;;;;5.57;2.30;;;6.90;99.90;;;;;;5051342;28;20669;-77
2021/05/05 02:39:55;;;;;;;8.83;2.73;;;6.80;99.90;;;;;;5048561;28;20210;-77
2021/05/05 02:42:40;;;;;;;8.30;2.20;;;6.80;99.90;;;;;;5052297;28;20210;-77
2021/05/05 02:45:26;;;;;;;5.63;2.40;;;6.80;99.90;;;;;;5056857;28;20214;-76
2021/05/05 02:48:11;;;;;;;8.23;2.07;;;6.70;99.90;;;;;;5053004;28;20345;-77
2021/05/05 02:50:56;;;;;;;8.13;2.10;;;6.60;99.90;;;;;;5050763;28;20300;-77
2021/05/05 02:53:41;;;;;;;11.97;2.63;;;6.60;99.90;;;;;;5046462;28;20569;-76
2021/05/05 02:56:26;;;;;;;9.63;2.80;;;6.60;99.90;;;;;;5049336;28;20286;-77
2021/05/05 02:59:11;;;;;;;9.60;3.03;;;6.50;99.90;;;;;;5043539;28;20210;-76
2021/05/05 03:01:57;;;;;;;9.30;2.90;;;6.50;99.90;;;;;;5051934;28;20295;-77
2021/05/05 03:04:42;;;;;;;15.93;3.30;;;6.40;99.90;;;;;;5050465;28;20257;-77
2021/05/05 03:07:28;;;;;;;7.03;2.73;;;6.40;99.90;;;;;;5051059;28;20636;-77
2021/05/05 03:10:13;;;;;;;10.57;2.40;;;6.30;99.90;;;;;;5043084;28;20215;-76
2021/05/05 03:12:58;;;;;;;8.87;2.63;;;6.40;99.90;;;;;;5043382;28;20202;-77
2021/05/05 03:15:43;;;;;;;7.07;2.60;;;6.20;99.90;;;;;;5057037;28;20211;-77
2021/05/05 03:18:30;;;;;;;5.47;2.40;;;6.20;99.90;;;;;;5054175;28;20696;-78
2021/05/05 03:21:15;;;;;;;5.07;2.50;;;6.10;99.90;;;;;;5047461;28;20307;-77
2021/05/05 03:24:00;;;;;;;5.07;1.80;;;6.10;99.90;;;;;;5052221;28;20202;-77
2021/05/05 03:26:45;;;;;;;9.67;3.80;;;6.00;99.90;;;;;;5056240;28;20198;-77
2021/05/05 03:29:30;;;;;;;10.83;4.13;;;5.90;99.90;;;;;;5041586;28;20216;-76
2021/05/05 03:32:15;;;;;;;8.60;4.43;;;5.90;99.90;;;;;;5049258;28;20231;-77
2021/05/05 03:35:00;;;;;;;12.37;5.13;;;5.90;99.90;;;;;;5053698;28;20291;-77
2021/05/05 03:37:45;;;;;;;11.47;6.17;;;5.80;99.90;;;;;;5054369;28;20254;-77
2021/05/05 03:40:30;;;;;;;10.13;6.20;;;5.90;99.90;;;;;;5046350;28;20729;-77
2021/05/05 03:43:15;;;;;;;13.73;7.40;;;5.90;99.90;;;;;;5049204;28;20234;-76
2021/05/05 03:46:00;;;;;;;14.03;6.87;;;5.90;99.90;;;;;;5044346;28;20219;-76
2021/05/05 03:48:45;;;;;;;19.87;7.87;;;5.90;99.90;;;;;;5058122;28;20245;-77
2021/05/05 03:51:30;;;;;;;19.57;8.13;;;5.90;99.90;;;;;;5055087;28;20223;-77
2021/05/05 03:54:17;;;;;;;11.63;6.60;;;5.90;99.90;;;;;;5047149;28;20291;-77
2021/05/05 03:57:03;;;;;;;16.50;8.03;;;5.90;99.90;;;;;;5051029;28;20692;-77
2021/05/05 03:59:48;;;;;;;17.60;6.57;;;6.00;99.90;;;;;;5056652;28;20593;-77
2021/05/05 04:02:33;;;;;;;12.03;6.13;;;6.00;99.90;;;;;;5057971;28;20298;-77
2021/05/05 04:05:18;;;;;;;22.10;6.83;;;6.00;99.90;;;;;;5051309;28;20280;-76
2021/05/05 04:08:05;;;;;;;18.07;7.10;;;6.00;99.90;;;;;;5058446;28;20214;-77
2021/05/05 04:10:50;;;;;;;13.00;6.07;;;6.20;99.90;;;;;;5057673;28;20238;-77
2021/05/05 04:13:35;;;;;;;17.00;7.20;;;6.00;99.90;;;;;;5058415;28;20202;-76
2021/05/05 04:16:20;;;;;;;19.53;8.57;;;6.00;99.90;;;;;;5048508;28;20212;-77
2021/05/05 04:19:04;;;;;;;19.43;7.90;;;6.00;99.90;;;;;;5052721;28;20221;-77
2021/05/05 04:21:49;;;;;;;19.33;8.80;;;6.00;99.90;;;;;;5052145;28;20226;-77
2021/05/05 04:24:35;;;;;;;16.60;8.20;;;6.00;99.90;;;;;;5039577;28;20203;-76
2021/05/05 04:27:20;;;;;;;18.63;8.90;;;6.10;99.90;;;;;;5057451;28;20206;-78
2021/05/05 04:30:07;;;;;;;18.00;8.13;;;6.10;99.90;;;;;;5055643;28;20242;-76
2021/05/05 04:32:52;;;;;;;12.60;6.10;;;6.10;99.90;;;;;;5061993;28;20264;-76
2021/05/05 04:35:37;;;;;;;19.03;7.40;;;6.20;99.90;;;;;;5062934;28;20237;-75
2021/05/05 04:38:22;;;;;;;21.37;7.40;;;6.20;99.90;;;;;;5061930;28;20240;-76
2021/05/05 04:41:08;;;;;;;21.63;8.53;;;6.20;99.90;;;;;;5053749;28;20214;-77
2021/05/05 04:43:53;;;;;;;15.10;7.83;;;6.20;99.90;;;;;;5064160;28;20257;-75
2021/05/05 04:46:38;;;;;;;17.53;10.33;;;6.20;99.90;;;;;;5049920;28;20218;-77
2021/05/05 04:49:23;;;;;;;21.07;10.07;;;6.30;99.90;;;;;;5040940;28;20618;-76
2021/05/05 04:52:08;;;;;;;15.30;8.57;;;6.30;99.90;;;;;;5059632;28;20242;-76
2021/05/05 04:54:52;;;;;;;13.73;7.70;;;6.30;99.90;;;;;;5060740;28;20244;-77
2021/05/05 04:57:38;;;;;;;15.63;6.93;;;6.30;99.90;;;;;;5049908;28;20206;-76
2021/05/05 05:00:30;;;;;;;8.27;5.57;;;6.30;99.90;;;;;;5059974;28;20272;-76
2021/05/05 05:03:15;;;;;;;9.13;3.60;;;6.30;99.90;;;;;;5056551;28;20254;-76
2021/05/05 05:06:00;;;;;;;9.30;4.90;;;6.30;99.90;;;;;;5048140;28;20206;-76
2021/05/05 05:08:45;;;;;;;10.97;5.03;;;6.30;99.90;;;;;;5047512;28;20219;-76
2021/05/05 05:11:30;;;;;;;8.23;4.40;;;6.30;99.90;;;;;;5053742;28;20588;-75
2021/05/05 05:14:16;;;;;;;8.97;4.63;;;6.30;99.90;;;;;;5059082;28;20234;-77
2021/05/05 05:17:01;;;;;;;10.33;4.87;;;6.30;99.90;;;;;;5066718;28;20202;-74
2021/05/05 05:19:48;;;;;;;10.90;4.30;;;6.30;99.90;;;;;;5074637;28;20256;-76
2021/05/05 05:22:34;;;;;;;10.77;4.63;;;6.60;99.90;;;;;;5062494;28;20256;-78
2021/05/05 05:25:19;;;;;;;10.87;4.70;;;6.30;99.90;;;;;;5065663;28;20198;-78
2021/05/05 05:28:04;;;;;;;14.43;5.40;;;6.30;99.90;;;;;;5068862;28;20206;-79
2021/05/05 05:30:50;;;;;;;10.93;5.00;;;6.30;99.90;;;;;;5061279;28;20229;-78
2021/05/05 05:33:35;;;;;;;10.17;4.70;;;6.30;99.90;;;;;;5065440;28;20202;-79
2021/05/05 05:36:20;;;;;;;9.23;5.13;;;6.30;99.90;;;;;;5063706;28;20233;-80
2021/05/05 05:39:07;;;;;;;16.13;4.80;;;6.40;99.90;;;;;;5061735;28;20283;-79
2021/05/05 05:41:52;;;;;;;13.50;5.37;;;6.40;99.90;;;;;;5066459;28;20715;-78
2021/05/05 05:44:37;;;;;;;9.77;4.00;;;6.40;99.90;;;;;;5053859;28;20210;-78
2021/05/05 05:47:22;;;;;;;9.30;3.30;;;6.40;99.90;;;;;;5065659;28;20213;-78
2021/05/05 05:50:08;;;;;;;12.43;4.70;;;6.40;99.90;;;;;;5058134;28;20213;-77
2021/05/05 05:52:53;;;;;;;12.80;4.77;;;6.40;99.90;;;;;;5053170;28;20281;-78
2021/05/05 05:55:41;;;;;;;9.23;4.90;;;6.50;99.90;;;;;;5061662;28;20936;-79
2021/05/05 05:58:26;;;;;;;8.67;4.43;;;6.40;99.90;;;;;;5045876;28;20300;-78
2021/05/05 06:01:11;;;;;;;11.90;4.70;;;6.50;99.90;;;;;;5052975;28;20230;-78
2021/05/05 06:04:01;;;;;;;9.03;4.90;;;6.50;99.90;;;;;;5059573;28;20210;-78
2021/05/05 06:06:46;;;;;;;9.97;5.30;;;6.60;99.90;;;;;;5053022;28;20242;-78
2021/05/05 06:09:31;;;;;;;13.23;4.40;;;6.60;99.90;;;;;;5057261;28;20351;-80
2021/05/05 06:12:16;;;;;;;7.53;4.27;;;6.70;99.90;;;;;;5056699;28;20222;-79
2021/05/05 06:15:02;;;;;;;10.57;4.03;;;6.80;99.90;;;;;;5061127;28;20241;-79
2021/05/05 06:17:47;;;;;;;9.23;3.57;;;6.90;99.90;;;;;;5074610;28;20207;-78
2021/05/05 06:20:33;;;;;;;5.53;2.80;;;6.90;99.90;;;;;;5079828;28;20218;-78
2021/05/05 06:23:19;;;;;;;7.57;2.60;;;7.00;99.90;;;;;;5079541;28;20214;-78
2021/05/05 06:26:04;;;;;;;9.23;3.27;;;7.10;99.90;;;;;;5071555;28;20252;-78
2021/05/05 06:28:49;;;;;;;8.60;2.27;;;7.10;99.90;;;;;;5057180;28;20214;-79
2021/05/05 06:31:37;;;;;;;7.17;2.00;;;7.20;99.90;;;;;;5059668;28;20226;-81
2021/05/05 06:34:22;;;;;;;4.90;1.87;;;7.20;99.90;;;;;;5053963;28;20226;-78
2021/05/05 06:37:08;;;;;;;5.13;1.80;;;7.30;99.90;;;;;;5059591;28;20217;-79
2021/05/05 06:39:53;;;;;;;6.80;2.53;;;7.30;99.90;;;;;;5059302;28;20258;-78
2021/05/05 06:42:38;;;;;;;9.07;2.23;;;7.40;99.90;;;;;;5063950;28;20254;-80
2021/05/05 06:45:23;;;;;;;6.50;2.37;;;7.50;99.90;;;;;;5071180;28;20215;-79
2021/05/05 06:48:09;;;;;;;10.03;2.30;;;7.50;99.90;;;;;;5070244;28;20260;-79
2021/05/05 06:50:53;;;;;;;7.30;2.30;;;7.50;99.90;;;;;;5061727;28;20237;-79
2021/05/05 06:53:39;;;;;;;4.00;1.93;;;7.50;99.90;;;;;;5065543;28;20206;-79
2021/05/05 06:56:24;;;;;;;6.77;2.53;;;7.60;99.90;;;;;;5061748;28;20584;-78
2021/05/05 06:59:08;;;;;;;8.13;2.37;;;7.60;99.90;;;;;;5058222;28;20225;-80
2021/05/05 07:01:53;;;;;;;8.90;3.53;;;7.70;99.90;;;;;;5048902;28;20334;-79
2021/05/05 07:04:38;;;;;;;8.23;4.47;;;7.80;99.90;;;;;;5065381;28;20206;-80
2021/05/05 07:07:28;;;;;;;5.00;4.37;;;7.80;99.90;;;;;;5065377;28;20225;-80
2021/05/05 07:10:15;;;;;;;7.73;5.77;;;7.90;99.90;;;;;;5067303;28;20203;-78
2021/05/05 07:13:00;;;;;;;7.37;6.10;;;7.90;99.90;;;;;;5057338;28;20600;-79
2021/05/05 07:15:44;;;;;;;7.80;5.20;;;7.90;99.90;;;;;;5055432;28;20221;-79
2021/05/05 07:18:31;;;;;;;12.13;5.47;;;7.90;99.90;;;;;;5051346;28;20214;-80
2021/05/05 07:21:16;;;;;;;9.37;5.47;;;8.00;99.90;;;;;;5060209;28;20229;-79
2021/05/05 07:24:01;;;;;;;11.37;4.70;;;8.00;99.90;;;;;;5054492;28;20242;-79
2021/05/05 07:26:47;;;;;;;9.73;4.50;;;8.00;99.90;;;;;;5048297;28;20211;-78
2021/05/05 07:29:32;;;;;;;10.90;4.17;;;8.10;99.90;;;;;;5049769;28;20208;-79
2021/05/05 07:32:17;;;;;;;10.33;3.90;;;8.10;99.90;;;;;;5053460;28;20287;-80
2021/05/05 07:35:05;;;;;;;8.50;3.40;;;8.20;99.90;;;;;;5053169;28;20293;-78
2021/05/05 07:38:15;;;;;;;8.03;4.00;;;8.20;99.90;;;;;;5059895;28;20215;-78
2021/05/05 07:47:10;;;;;;;6.10;2.40;;;8.10;99.90;;;;;;5030615;28;540394;-79
2021/05/05 07:49:56;;;;;;;3.80;2.93;;;8.00;99.90;;;;;;5047770;28;20412;-79
2021/05/05 07:52:41;;;;;;;7.00;3.03;;;8.00;99.90;;;;;;5055966;28;20692;-78
2021/05/05 07:55:25;;;;;;;8.03;3.10;;;8.00;99.90;;;;;;5058823;28;20653;-79
2021/05/05 07:58:11;;;;;;;11.03;3.93;;;8.00;99.90;;;;;;5049735;28;20686;-79
2021/05/05 08:00:57;;;;;;;9.13;4.10;;;8.00;99.90;;;;;;5047483;28;20251;-79
2021/05/05 08:03:41;;;;;;;14.33;4.77;;;7.90;99.90;;;;;;5051053;28;20713;-79
2021/05/05 08:06:27;;;;;;;13.20;4.53;;;7.90;99.90;;;;;;5055683;28;20573;-78
2021/05/05 08:09:13;;;;;;;10.57;3.63;;;7.90;99.90;;;;;;5068025;28;20284;-79
2021/05/05 08:11:57;;;;;;;7.67;2.67;;;7.90;99.90;;;;;;5078191;28;20231;-79
2021/05/05 08:14:43;;;;;;;10.13;3.37;;;8.00;99.90;;;;;;5056883;28;20250;-79
2021/05/05 08:17:29;;;;;;;8.80;1.60;;;8.10;99.90;;;;;;5058855;28;20202;-79
2021/05/05 08:20:15;;;;;;;6.97;1.73;;;8.20;99.90;;;;;;5059235;28;20214;-79
2021/05/05 08:23:00;;;;;;;3.60;1.50;;;8.10;99.90;;;;;;5058163;28;20218;-79
2021/05/05 08:25:44;;;;;;;9.27;1.70;;;8.20;99.90;;;;;;5058693;28;20196;-79
2021/05/05 08:28:29;;;;;;;8.20;2.17;;;8.20;99.90;;;;;;5057893;28;20260;-78
2021/05/05 08:31:14;;;;;;;5.43;2.30;;;8.20;99.90;;;;;;5043711;28;20266;-78
2021/05/05 08:34:01;;;;;;;8.43;2.77;;;8.10;99.90;;;;;;5068576;28;20218;-78
2021/05/05 08:36:46;;;;;;;10.23;2.63;;;8.20;99.90;;;;;;5061456;28;20826;-78
2021/05/05 08:39:31;;;;;;;8.20;2.03;;;8.30;99.90;;;;;;5056901;28;20281;-79
2021/05/05 08:42:16;;;;;;;5.77;2.07;;;8.40;99.90;;;;;;5056047;28;20246;-79
2021/05/05 08:45:02;;;;;;;7.60;1.70;;;8.50;99.90;;;;;;5060023;28;20223;-78
2021/05/05 08:47:48;;;;;;;6.23;2.13;;;8.40;99.90;;;;;;5067111;28;20234;-78
2021/05/05 08:50:37;;;;;;;5.13;1.90;;;8.60;99.90;;;;;;5065430;28;20225;-78
2021/05/05 08:53:21;;;;;;;5.77;2.13;;;8.70;99.90;;;;;;5061449;28;20210;-79
2021/05/05 08:56:06;;;;;;;8.63;2.50;;;8.80;99.90;;;;;;5059228;28;20253;-78
2021/05/05 08:58:51;;;;;;;11.07;2.20;;;8.90;99.90;;;;;;5053862;28;20262;-78
2021/05/05 09:01:37;;;;;;;6.53;2.40;;;8.90;99.90;;;;;;5053412;28;20234;-79
2021/05/05 09:04:23;;;;;;;8.33;2.50;;;9.00;99.90;;;;;;5065934;28;20692;-77
2021/05/05 09:07:08;;;;;;;10.50;3.00;;;9.00;99.90;;;;;;5050664;28;20217;-77
2021/05/05 09:09:53;;;;;;;9.47;3.13;;;9.00;99.90;;;;;;5053443;28;20326;-77
2021/05/05 09:12:40;;;;;;;10.70;3.53;;;9.00;99.90;;;;;;5051386;28;20906;-78
2021/05/05 09:15:25;;;;;;;8.70;2.33;;;9.00;99.90;;;;;;5052686;28;20230;-78
2021/05/05 09:18:10;;;;;;;7.77;3.10;;;9.10;99.90;;;;;;5052275;28;20219;-78
2021/05/05 09:21:09;;;;;;;5.57;2.10;;;9.10;99.90;;;;;;5052013;28;20310;-79
2021/05/05 09:24:13;;;;;;;11.93;2.90;;;9.20;99.90;;;;;;5049202;28;20568;-77
2021/05/05 09:27:00;;;;;;;8.87;3.00;;;9.30;99.90;;;;;;5049831;28;20207;-78
2021/05/05 09:29:46;;;;;;;5.83;2.93;;;9.30;99.90;;;;;;5059584;28;20317;-77
2021/05/05 09:32:47;;;;;;;6.50;2.33;;;9.50;99.90;;;;;;5066842;28;20214;-78
2021/05/05 09:35:34;;;;;;;10.23;2.50;;;9.90;99.90;;;;;;5061856;28;20634;-78
2021/05/05 09:38:19;;;;;;;11.80;2.80;;;10.40;99.90;;;;;;5054801;28;20242;-78
2021/05/05 09:41:05;;;;;;;10.40;2.43;;;10.90;99.90;;;;;;5053017;28;20280;-78
2021/05/05 09:43:52;;;;;;;6.80;1.80;;;11.40;99.90;;;;;;5045500;28;20272;-77
2021/05/05 09:46:41;;;;;;;4.53;1.20;;;11.80;99.90;;;;;;5053564;28;20206;-77
2021/05/05 09:49:32;;;;;;;4.93;1.40;;;11.90;99.90;;;;;;5062416;28;20206;-78
2021/05/05 09:52:24;;;;;;;1.33;0.50;;;11.90;99.90;;;;;;5067142;28;20234;-81
2021/05/05 09:55:12;;;;;;;3.30;0.87;;;11.80;99.90;;;;;;5064192;28;20222;-77
2021/05/05 09:57:57;;;;;;;3.10;1.20;;;11.80;99.90;;;;;;5064430;28;20358;-78
2021/05/05 10:00:42;;;;;;;2.13;0.73;;;11.90;99.90;;;;;;5055373;28;20241;-79
2021/05/05 10:03:35;;;;;;;2.83;1.10;;;11.80;99.90;;;;;;5055873;28;20564;-78
2021/05/05 10:06:29;;;;;;;2.00;0.87;;;11.90;99.90;;;;;;5058439;28;20249;-79
2021/05/05 10:09:13;;;;;;;2.60;1.23;;;12.20;99.90;;;;;;5051296;28;20218;-79
2021/05/05 10:11:59;;;;;;;4.67;0.90;;;12.60;99.90;;;;;;5052498;28;20291;-78
2021/05/05 10:14:44;;;;;;;4.00;0.90;;;13.20;99.90;;;;;;5055019;28;20701;-78
2021/05/05 10:17:29;;;;;;;1.63;0.80;;;13.80;99.90;;;;;;5062802;28;20240;-78
2021/05/05 10:20:17;;;;;;;2.87;1.07;;;14.40;99.90;;;;;;5045671;28;20242;-79
2021/05/05 10:23:04;;;;;;;2.17;0.97;;;15.00;99.90;;;;;;5054346;28;20258;-78
2021/05/05 10:25:49;;;;;;;5.23;1.30;;;15.50;99.90;;;;;;5059763;28;20230;-79
2021/05/05 10:28:38;;;;;;;3.77;1.40;;;15.80;99.90;;;;;;5061843;28;20223;-79
2021/05/05 10:31:27;;;;;;;6.23;1.73;;;15.90;99.90;;;;;;5057624;28;20252;-80
2021/05/05 10:34:19;;;;;;;4.23;1.07;;;15.80;99.90;;;;;;5054947;28;20281;-79
2021/05/05 10:37:05;;;;;;;3.40;1.60;;;15.70;99.90;;;;;;5054855;28;20619;-78
2021/05/05 10:39:50;;;;;;;6.73;1.60;;;15.40;99.90;;;;;;5050220;28;20220;-78
2021/05/05 10:42:49;;;;;;;7.07;1.90;;;15.20;99.90;;;;;;5045604;28;20236;-80
2021/05/05 10:45:36;;;;;;;7.97;2.17;;;15.20;99.90;;;;;;5052742;28;20264;-79
2021/05/05 10:48:22;;;;;;;6.00;1.97;;;15.20;99.90;;;;;;5052903;28;20216;-78
2021/05/05 10:51:07;;;;;;;9.07;2.23;;;15.30;99.90;;;;;;5050174;28;20649;-78
2021/05/05 10:53:53;;;;;;;6.60;1.93;;;15.40;99.90;;;;;;5051067;28;20206;-77
2021/05/05 10:56:38;;;;;;;7.67;2.20;;;15.40;99.90;;;;;;5042977;28;20199;-78
2021/05/05 10:59:26;;;;;;;5.57;1.70;;;15.40;99.90;;;;;;5053618;28;20219;-78
2021/05/05 11:02:58;;;;;;;7.17;1.80;;;15.20;99.90;;;;;;5057146;28;20223;-78
2021/05/05 11:05:47;;;;;;;5.67;1.80;;;15.10;99.90;;;;;;5066746;28;20214;-78
2021/05/05 11:08:34;;;;;;;8.80;1.87;;;15.00;99.90;;;;;;5046758;28;20213;-78
2021/05/05 11:11:37;;;;;;;6.63;1.60;;;14.90;99.90;;;;;;5051646;28;20260;-78
2021/05/05 11:14:46;;;;;;;8.13;1.70;;;15.00;99.90;;;;;;5052710;28;20219;-78
2021/05/05 11:17:31;;;;;;;3.83;1.50;;;15.00;99.90;;;;;;5055210;28;20224;-79
2021/05/05 11:20:42;;;;;;;7.07;1.90;;;15.10;99.90;;;;;;5057519;28;20334;-80
2021/05/05 11:23:45;;;;;;;5.23;1.33;;;15.50;99.90;;;;;;5055153;28;20602;-80
2021/05/05 11:26:44;;;;;;;5.40;1.67;;;16.00;99.90;;;;;;5054594;28;20210;-78
2021/05/05 11:29:40;;;;;;;4.17;1.47;;;16.50;99.90;;;;;;5057153;28;20235;-81
2021/05/05 11:32:27;;;;;;;7.70;1.73;;;17.10;99.90;;;;;;5067585;28;20234;-79
2021/05/05 11:35:26;;;;;;;7.37;1.93;;;17.30;99.90;;;;;;5058084;28;20799;-78
2021/05/05 11:38:20;;;;;;;8.23;2.10;;;17.60;99.90;;;;;;5051756;28;20265;-79
2021/05/05 11:41:09;;;;;;;6.00;2.07;;;17.90;99.90;;;;;;5055228;28;20619;-78
2021/05/05 11:43:53;;;;;;;8.83;2.07;;;18.30;99.90;;;;;;5053360;28;20219;-77
2021/05/05 11:46:38;;;;;;;6.63;2.10;;;18.70;99.90;;;;;;5059115;28;20211;-77
2021/05/05 11:49:30;;;;;;;8.83;2.40;;;19.20;99.90;;;;;;5057699;28;20269;-80
2021/05/05 11:52:24;;;;;;;8.60;2.33;;;19.60;98.80;;;;;;5051233;28;20362;-79
2021/05/05 11:55:18;;;;;;;5.40;1.90;;;20.00;96.70;;;;;;5059189;28;20217;-78
2021/05/05 11:58:03;;;;;;;6.53;2.00;;;20.20;95.00;;;;;;5051363;28;20232;-79
2021/05/05 12:00:48;;;;;;;7.57;2.60;;;20.40;94.90;;;;;;5063585;28;20230;-79
2021/05/05 12:03:33;;;;;;;10.47;2.57;;;20.40;92.90;;;;;;5059580;28;20209;-78
2021/05/05 12:06:18;;;;;;;17.87;2.90;;;20.40;91.40;;;;;;5063470;28;20201;-79
2021/05/05 12:09:03;;;;;;;5.47;2.00;;;20.30;90.40;;;;;;5049181;28;20252;-79
2021/05/05 12:11:48;;;;;;;6.50;2.03;;;20.20;86.40;;;;;;5056998;28;20589;-79
2021/05/05 12:14:34;;;;;;;7.80;2.23;;;19.90;90.00;;;;;;5059318;28;20289;-79
2021/05/05 12:17:27;;;;;;;6.90;2.03;;;19.60;92.60;;;;;;5068876;28;20274;-79
2021/05/05 12:20:14;;;;;;;9.17;2.40;;;19.20;94.60;;;;;;5053937;28;20202;-79
2021/05/05 12:23:00;;;;;;;8.50;2.77;;;18.90;93.30;;;;;;5052448;28;20282;-78
2021/05/05 12:25:45;;;;;;;4.50;2.00;;;18.70;91.50;;;;;;5057203;28;20682;-79
2021/05/05 12:28:37;;;;;;;8.80;2.20;;;18.70;89.10;;;;;;5055365;28;20219;-79
2021/05/05 12:31:24;;;;;;;5.10;1.80;;;18.90;88.90;;;;;;5053390;28;20227;-79
2021/05/05 12:34:09;;;;;;;9.17;2.20;;;19.20;84.70;;;;;;5054598;28;20208;-79
2021/05/05 12:36:56;;;;;;;5.90;1.60;;;19.60;83.00;;;;;;5048379;28;20217;-80
2021/05/05 12:39:40;;;;;;;6.77;2.10;;;19.80;85.20;;;;;;5057882;28;20358;-80
2021/05/05 12:42:33;;;;;;;12.53;3.00;;;20.00;83.40;;;;;;5054119;28;20329;-80
2021/05/05 12:45:19;;;;;;;9.30;2.30;;;20.30;80.30;;;;;;5053460;28;20688;-81
2021/05/05 12:48:07;;;;;;;3.53;1.27;;;20.30;83.60;;;;;;5053746;28;20277;-79
2021/05/05 12:50:53;;;;;;;6.30;1.90;;;20.20;83.40;;;;;;5058021;28;20231;-79
2021/05/05 12:53:48;;;;;;;9.00;2.37;;;19.90;81.30;;;;;;5056830;28;20692;-79
2021/05/05 12:56:43;;;;;;;9.17;2.97;;;19.30;81.80;;;;;;5053468;28;20222;-79
2021/05/05 12:59:32;;;;;;;10.20;2.60;;;18.80;83.10;;;;;;5049208;28;20252;-78
2021/05/05 13:02:21;;;;;;;8.63;2.43;;;18.30;84.90;;;;;;5059597;28;20315;-79
2021/05/05 13:05:08;;;;;;;8.97;2.73;;;17.90;89.50;;;;;;5051142;28;20340;-79
2021/05/05 13:07:53;;;;;;;12.57;2.70;;;17.70;90.40;;;;;;5064039;28;20203;-80
2021/05/05 13:10:47;;;;;;;7.53;2.00;;;17.70;88.60;;;;;;5045936;28;20230;-79
2021/05/05 13:13:43;;;;;;;8.43;2.00;;;17.80;87.70;;;;;;5043656;28;20298;-78
2021/05/05 13:16:48;;;;;;;7.57;1.90;;;17.90;87.50;;;;;;5060296;28;20234;-80
2021/05/05 13:20:08;;;;;;;8.13;1.60;;;18.00;86.50;;;;;;5062121;28;20681;-79
2021/05/05 13:29:32;;;;;;;8.37;2.37;;;18.00;82.10;;;;;;5047500;28;20224;-78
2021/05/05 13:29:44;;;;;;;7.07;1.90;;;18.00;82.10;;;;;;5053418;28;20216;-79
2021/05/05 13:32:30;;;;;;;9.10;2.47;;;18.30;83.80;;;;;;5062114;28;20240;-78
2021/05/05 13:35:28;;;;;;;11.03;2.27;;;18.60;81.10;;;;;;5049881;28;20215;-79
2021/05/05 13:38:15;;;;;;;6.33;2.30;;;18.80;79.80;;;;;;5060541;28;20206;-77
2021/05/05 13:41:03;;;;;;;8.00;2.57;;;19.00;79.90;;;;;;5060992;28;20297;-78
2021/05/05 13:43:54;;;;;;;6.70;2.43;;;19.20;78.30;;;;;;5062770;28;20570;-78
2021/05/05 13:46:56;;;;;;;9.17;2.73;;;19.10;78.10;;;;;;5065433;28;20207;-79
2021/05/05 13:49:42;;;;;;;8.40;2.77;;;18.90;79.10;;;;;;5065360;28;20216;-78
2021/05/05 13:52:29;;;;;;;9.40;3.10;;;18.80;80.90;;;;;;5046518;28;20786;-79
2021/05/05 13:55:15;;;;;;;8.20;2.70;;;18.80;82.40;;;;;;5055356;28;20239;-79
2021/05/05 13:58:00;;;;;;;7.80;2.70;;;18.80;83.80;;;;;;5076724;28;20220;-78
2021/05/05 14:00:45;;;;;;;9.70;2.50;;;18.90;83.90;;;;;;5068859;28;20247;-79
2021/05/05 14:03:30;;;;;;;4.93;1.93;;;19.10;77.90;;;;;;5044499;28;20241;-79
2021/05/05 14:06:15;;;;;;;11.27;2.83;;;19.10;76.80;;;;;;5050122;28;20220;-78
2021/05/05 14:09:00;;;;;;;11.67;2.87;;;19.10;75.60;;;;;;5060794;28;20591;-79
2021/05/05 14:11:46;;;;;;;7.43;2.03;;;19.10;76.80;;;;;;5053444;28;20335;-79
2021/05/05 14:14:33;;;;;;;10.57;2.70;;;19.20;77.10;;;;;;5054713;28;20617;-79
2021/05/05 14:17:18;;;;;;;10.20;2.60;;;19.30;77.30;;;;;;5053581;28;20252;-79
2021/05/05 14:20:06;;;;;;;8.33;2.73;;;19.60;76.10;;;;;;5057480;28;20218;-78
2021/05/05 14:22:51;;;;;;;6.23;2.33;;;19.80;76.50;;;;;;5061802;28;20213;-79
2021/05/05 14:25:36;;;;;;;6.20;2.37;;;20.10;75.80;;;;;;5067660;28;20274;-80
2021/05/05 14:28:22;;;;;;;7.70;2.70;;;20.40;74.30;;;;;;5067748;28;21055;-79
2021/05/05 14:31:08;;;;;;;7.57;2.23;;;20.50;71.10;;;;;;5061692;28;20234;-78
2021/05/05 14:33:53;;;;;;;8.77;2.33;;;20.50;71.90;;;;;;5060876;28;20632;-79
2021/05/05 14:36:38;;;;;;;8.60;2.53;;;20.40;71.50;;;;;;5057726;28;20333;-79
2021/05/05 14:39:23;;;;;;;10.20;2.60;;;20.20;71.00;;;;;;5073414;28;20235;-79
2021/05/05 14:42:12;;;;;;;9.70;2.67;;;20.20;71.30;;;;;;5066945;28;20237;-79
2021/05/05 14:45:04;;;;;;;9.63;2.63;;;20.10;72.30;;;;;;5068468;28;20208;-79